createdAt,value
2022-08-03T00:02:15.665Z,20.31
2022-08-03T00:04:42.925Z,20.31
2022-08-03T00:07:10.036Z,20.23
2022-08-03T00:09:37.135Z,20.29
2022-08-03T00:12:04.607Z,20.30
2022-08-03T00:14:31.723Z,20.33
2022-08-03T00:16:58.981Z,20.24
2022-08-03T00:19:26.093Z,20.04
2022-08-03T00:21:53.148Z,20.25
2022-08-03T00:24:20.436Z,20.19
2022-08-03T00:26:47.570Z,20.24
2022-08-03T00:29:14.706Z,20.26
2022-08-03T00:31:52.912Z,20.12
2022-08-03T00:34:36.542Z,20.18
2022-08-03T00:37:13.846Z,20.11
2022-08-03T00:39:41.087Z,20.12
2022-08-03T00:42:08.197Z,20.06
2022-08-03T00:44:43.629Z,20.06
2022-08-03T00:47:11.813Z,20.08
2022-08-03T00:49:39.958Z,20.06
2022-08-03T00:52:11.888Z,20.05
2022-08-03T00:54:39.608Z,19.96
2022-08-03T00:57:07.433Z,19.98
2022-08-03T00:59:34.850Z,19.79
2022-08-03T01:02:02.460Z,19.96
2022-08-03T01:04:29.533Z,20.00
2022-08-03T01:07:17.500Z,19.94
2022-08-03T01:10:01.502Z,19.92
2022-08-03T01:12:44.135Z,19.93
2022-08-03T01:15:29.645Z,19.70
2022-08-03T01:18:03.784Z,19.79
2022-08-03T01:20:38.398Z,19.71
2022-08-03T01:23:16.428Z,19.74
2022-08-03T01:26:09.882Z,19.74
2022-08-03T01:29:01.599Z,19.74
2022-08-03T01:32:58.042Z,19.71
2022-08-03T01:34:36.862Z,19.69
2022-08-03T01:37:08.038Z,19.60
2022-08-03T01:39:38.254Z,19.69
2022-08-03T01:42:07.936Z,19.66
2022-08-03T01:44:41.175Z,19.68
2022-08-03T01:47:12.566Z,19.67
2022-08-03T01:49:43.598Z,19.68
2022-08-03T01:52:12.110Z,19.69
2022-08-03T01:54:44.480Z,19.67
2022-08-03T01:57:13.566Z,19.58
2022-08-03T01:59:42.239Z,19.56
2022-08-03T02:02:32.052Z,19.60
2022-08-03T02:05:03.464Z,19.57
2022-08-03T02:07:33.129Z,19.68
2022-08-03T02:10:02.933Z,19.70
2022-08-03T02:12:32.716Z,19.78
2022-08-03T02:15:20.623Z,19.85
2022-08-03T02:17:49.577Z,20.27
2022-08-03T02:20:18.359Z,21.05
2022-08-03T02:22:47.595Z,21.53
2022-08-03T02:25:16.270Z,21.84
2022-08-03T02:28:05.180Z,21.80
2022-08-03T02:30:39.331Z,22.01
2022-08-03T02:33:12.538Z,22.21
2022-08-03T02:35:40.683Z,23.07
2022-08-03T02:38:10.267Z,23.45
2022-08-03T02:40:40.313Z,23.63
2022-08-03T02:43:16.380Z,23.35
2022-08-03T02:45:45.888Z,22.40
2022-08-03T02:48:18.290Z,21.94
2022-08-03T02:50:46.491Z,21.64
2022-08-03T02:53:15.690Z,21.60
2022-08-03T02:55:47.577Z,21.45
2022-08-03T02:58:17.617Z,21.30
2022-08-03T03:00:45.521Z,20.87
2022-08-03T03:03:13.923Z,20.79
2022-08-03T03:05:55.165Z,20.57
2022-08-03T03:08:28.350Z,20.57
2022-08-03T03:11:01.334Z,20.65
2022-08-03T03:13:32.530Z,20.89
2022-08-03T03:16:04.954Z,21.03
2022-08-03T03:18:34.259Z,21.02
2022-08-03T03:21:04.646Z,20.95
2022-08-03T03:23:32.079Z,20.82
2022-08-03T03:26:02.429Z,20.99
2022-08-03T03:28:31.632Z,21.76
2022-08-03T03:30:59.988Z,22.10
2022-08-03T03:33:28.493Z,22.14
2022-08-03T03:35:56.207Z,22.12
2022-08-03T03:38:23.492Z,21.47
2022-08-03T03:40:50.586Z,21.20
2022-08-03T03:43:18.800Z,20.93
2022-08-03T03:45:47.628Z,21.26
2022-08-03T03:48:14.942Z,21.25
2022-08-03T03:50:43.640Z,21.38
2022-08-03T03:53:12.078Z,21.51
2022-08-03T03:56:01.181Z,21.43
2022-08-03T03:58:27.490Z,21.16
2022-08-03T04:00:54.726Z,21.20
2022-08-03T04:03:21.830Z,21.34
2022-08-03T04:06:07.529Z,21.43
2022-08-03T04:08:53.134Z,21.58
2022-08-03T04:11:41.806Z,21.85
2022-08-03T04:14:19.366Z,21.96
2022-08-03T04:16:56.044Z,21.85
2022-08-03T04:19:30.626Z,21.72
2022-08-03T04:22:02.680Z,21.73
2022-08-03T04:24:38.770Z,21.62
2022-08-03T04:27:09.394Z,21.51
2022-08-03T04:29:48.251Z,21.41
2022-08-03T04:32:18.309Z,21.36
2022-08-03T04:34:45.992Z,21.54
2022-08-03T04:37:23.143Z,21.44
2022-08-03T04:39:51.671Z,21.68
2022-08-03T04:42:21.819Z,21.94
2022-08-03T04:44:48.985Z,21.96
2022-08-03T04:47:16.588Z,21.80
2022-08-03T04:49:44.213Z,21.83
2022-08-03T04:52:11.889Z,21.88
2022-08-03T04:54:48.752Z,22.09
2022-08-03T04:57:22.904Z,22.16
2022-08-03T05:00:02.168Z,22.09
2022-08-03T05:02:33.663Z,21.94
2022-08-03T05:05:00.833Z,22.00
2022-08-03T05:07:35.824Z,21.95
2022-08-03T05:10:14.795Z,22.08
2022-08-03T05:12:44.504Z,22.32
2022-08-03T05:15:12.074Z,22.45
2022-08-03T05:17:39.159Z,22.37
2022-08-03T05:20:06.672Z,22.47
2022-08-03T05:22:33.918Z,22.58
2022-08-03T05:25:02.330Z,22.59
2022-08-03T05:27:30.596Z,22.68
2022-08-03T05:30:30.670Z,22.71
2022-08-03T05:32:44.826Z,22.73
2022-08-03T05:35:55.881Z,22.85
2022-08-03T05:37:59.062Z,22.92
2022-08-03T05:40:26.812Z,22.99
2022-08-03T05:42:57.543Z,22.49
2022-08-03T05:45:28.433Z,22.66
2022-08-03T05:47:56.012Z,22.91
2022-08-03T05:50:23.722Z,22.89
2022-08-03T05:52:50.983Z,22.93
2022-08-03T05:55:19.052Z,23.24
2022-08-03T05:57:47.043Z,23.15
2022-08-03T06:00:16.625Z,23.35
2022-08-03T06:02:43.802Z,23.45
2022-08-03T06:05:11.028Z,23.49
2022-08-03T06:07:38.307Z,23.51
2022-08-03T06:10:37.242Z,23.47
2022-08-03T06:12:53.600Z,23.57
2022-08-03T06:15:21.078Z,23.64
2022-08-03T06:17:50.114Z,23.81
2022-08-03T06:20:19.735Z,23.92
2022-08-03T06:22:51.183Z,23.90
2022-08-03T06:25:27.154Z,24.05
2022-08-03T06:27:54.249Z,24.15
2022-08-03T06:30:21.654Z,24.19
2022-08-03T06:32:51.741Z,24.41
2022-08-03T06:35:20.130Z,24.58
2022-08-03T06:37:51.805Z,24.39
2022-08-03T06:40:29.220Z,24.60
2022-08-03T06:42:57.699Z,24.70
2022-08-03T06:45:25.103Z,24.95
2022-08-03T06:48:07.666Z,25.26
2022-08-03T06:50:36.382Z,25.37
2022-08-03T06:53:04.955Z,25.21
2022-08-03T06:55:32.720Z,25.18
2022-08-03T06:58:03.149Z,25.28
2022-08-03T07:00:31.088Z,25.22
2022-08-03T07:02:58.646Z,25.42
2022-08-03T07:05:25.967Z,25.48
2022-08-03T07:07:57.753Z,25.72
2022-08-03T07:10:25.613Z,25.85
2022-08-03T07:12:56.557Z,25.91
2022-08-03T07:15:38.312Z,25.90
2022-08-03T07:18:12.044Z,25.84
2022-08-03T07:20:39.181Z,25.87
2022-08-03T07:23:06.233Z,25.75
2022-08-03T07:25:33.493Z,25.98
2022-08-03T07:28:00.527Z,26.25
2022-08-03T07:30:27.643Z,26.27
2022-08-03T07:32:54.852Z,26.42
2022-08-03T07:35:24.785Z,26.34
2022-08-03T07:37:54.850Z,26.30
2022-08-03T07:40:22.969Z,26.30
2022-08-03T07:42:52.040Z,26.48
2022-08-03T07:45:23.479Z,26.82
2022-08-03T07:47:53.169Z,26.67
2022-08-03T07:50:21.265Z,26.41
2022-08-03T07:52:48.639Z,26.29
2022-08-03T07:55:35.257Z,26.81
2022-08-03T07:58:12.482Z,27.21
2022-08-03T08:00:39.879Z,27.23
2022-08-03T08:03:07.004Z,26.91
2022-08-03T08:05:34.681Z,27.21
2022-08-03T08:08:02.683Z,27.22
2022-08-03T08:10:30.031Z,27.17
2022-08-03T08:12:57.559Z,27.35
2022-08-03T08:15:25.246Z,27.38
2022-08-03T08:17:54.901Z,27.37
2022-08-03T08:20:28.129Z,27.46
2022-08-03T08:23:37.029Z,27.79
2022-08-03T08:25:56.269Z,27.15
2022-08-03T08:28:31.373Z,26.82
2022-08-03T08:31:01.385Z,26.84
2022-08-03T08:33:42.170Z,27.09
2022-08-03T08:36:15.771Z,27.53
2022-08-03T08:38:45.105Z,27.36
2022-08-03T08:41:13.959Z,26.90
2022-08-03T08:43:42.165Z,26.79
2022-08-03T08:46:23.615Z,27.00
2022-08-03T08:48:53.711Z,27.35
2022-08-03T08:51:22.445Z,27.76
2022-08-03T08:53:53.975Z,27.28
2022-08-03T08:56:25.532Z,26.99
2022-08-03T08:58:56.936Z,26.87
2022-08-03T09:01:24.095Z,26.71
2022-08-03T09:03:53.486Z,26.58
2022-08-03T09:06:21.872Z,26.87
2022-08-03T09:08:49.177Z,27.24
2022-08-03T09:11:16.400Z,27.17
2022-08-03T09:13:43.510Z,27.33
2022-08-03T09:16:11.505Z,27.25
2022-08-03T09:18:39.229Z,27.16
2022-08-03T09:21:37.292Z,27.48
2022-08-03T09:24:08.626Z,27.69
2022-08-03T09:26:40.772Z,27.36
2022-08-03T09:29:14.433Z,27.30
2022-08-03T09:31:46.240Z,27.54
2022-08-03T09:34:15.697Z,27.87
2022-08-03T09:36:50.586Z,27.90
2022-08-03T09:39:37.544Z,27.97
2022-08-03T09:42:14.811Z,27.92
2022-08-03T09:44:47.953Z,27.87
2022-08-03T09:47:28.364Z,27.49
2022-08-03T09:50:01.842Z,27.53
2022-08-03T09:52:49.231Z,27.58
2022-08-03T09:56:21.147Z,27.90
2022-08-03T09:58:09.614Z,28.07
2022-08-03T10:01:06.013Z,27.92
2022-08-03T10:03:36.347Z,28.04
2022-08-03T10:06:28.865Z,28.07
2022-08-03T10:09:16.578Z,28.10
2022-08-03T10:11:46.914Z,28.13
2022-08-03T10:14:20.152Z,28.28
2022-08-03T10:16:48.486Z,28.22
2022-08-03T10:19:16.623Z,28.01
2022-08-03T10:22:01.477Z,27.94
2022-08-03T10:24:30.839Z,28.01
2022-08-03T10:27:07.190Z,28.02
2022-08-03T10:29:48.937Z,27.90
2022-08-03T10:32:28.006Z,27.99
2022-08-03T10:35:12.400Z,28.09
2022-08-03T10:38:08.355Z,28.19
2022-08-03T10:40:58.642Z,28.04
2022-08-03T10:43:37.258Z,27.83
2022-08-03T10:46:07.398Z,27.69
2022-08-03T10:48:36.853Z,28.07
2022-08-03T10:51:04.968Z,28.10
2022-08-03T10:53:40.526Z,28.06
2022-08-03T10:56:57.741Z,28.01
2022-08-03T10:59:47.140Z,28.06
2022-08-03T11:02:15.652Z,27.77
2022-08-03T11:04:44.876Z,27.92
2022-08-03T11:07:22.819Z,28.12
2022-08-03T11:09:55.957Z,28.07
2022-08-03T11:12:32.949Z,27.92
2022-08-03T11:15:07.266Z,27.72
2022-08-03T11:17:45.872Z,27.68
2022-08-03T11:20:14.320Z,27.52
2022-08-03T11:22:51.726Z,27.43
2022-08-03T11:25:53.686Z,27.53
2022-08-03T11:28:28.731Z,27.74
2022-08-03T11:30:56.115Z,27.83
2022-08-03T11:33:31.322Z,27.98
2022-08-03T11:36:00.832Z,28.03
2022-08-03T11:38:28.147Z,28.08
2022-08-03T11:40:55.531Z,28.00
2022-08-03T11:43:22.840Z,27.97
2022-08-03T11:46:29.589Z,28.05
2022-08-03T11:49:10.230Z,27.94
2022-08-03T11:51:40.363Z,27.84
2022-08-03T11:54:08.172Z,27.81
2022-08-03T11:56:47.182Z,27.90
2022-08-03T11:59:20.452Z,27.92
2022-08-03T12:01:48.613Z,27.82
2022-08-03T12:04:16.567Z,27.53
2022-08-03T12:07:01.587Z,27.50
2022-08-03T12:09:28.772Z,27.35
2022-08-03T12:12:00.406Z,27.22
2022-08-03T12:14:48.292Z,27.27
2022-08-03T12:17:18.862Z,27.36
2022-08-03T12:19:46.592Z,27.42
2022-08-03T12:22:16.093Z,27.70
2022-08-03T12:24:46.818Z,27.82
2022-08-03T12:27:25.282Z,27.99
2022-08-03T12:29:58.270Z,28.22
2022-08-03T12:32:30.285Z,28.28
2022-08-03T12:35:01.515Z,28.26
2022-08-03T12:37:32.165Z,28.11
2022-08-03T12:40:09.467Z,28.01
2022-08-03T12:42:39.637Z,28.11
2022-08-03T12:45:27.374Z,28.01
2022-08-03T12:48:00.467Z,28.01
2022-08-03T12:50:31.763Z,27.91
2022-08-03T12:53:01.144Z,27.77
2022-08-03T12:55:57.141Z,27.63
2022-08-03T12:58:35.394Z,27.67
2022-08-03T13:01:10.061Z,27.60
2022-08-03T13:03:49.619Z,27.59
2022-08-03T13:06:26.596Z,27.57
2022-08-03T13:09:05.814Z,27.64
2022-08-03T13:11:57.341Z,27.71
2022-08-03T13:14:21.299Z,27.71
2022-08-03T13:16:49.394Z,27.88
2022-08-03T13:19:16.924Z,27.93
2022-08-03T13:22:01.384Z,27.79
2022-08-03T13:24:33.524Z,27.81
2022-08-03T13:28:01.838Z,27.85
2022-08-03T13:29:50.158Z,27.73
2022-08-03T13:32:17.397Z,27.53
2022-08-03T13:34:44.522Z,27.62
2022-08-03T13:37:12.273Z,27.48
2022-08-03T13:39:57.914Z,27.52
2022-08-03T13:42:31.771Z,27.62
2022-08-03T13:45:00.165Z,27.57
2022-08-03T13:47:28.061Z,27.61
2022-08-03T13:50:01.730Z,27.54
2022-08-03T13:52:33.617Z,27.45
2022-08-03T13:55:01.729Z,27.52
2022-08-03T13:58:04.544Z,27.48
2022-08-03T14:00:27.297Z,27.41
2022-08-03T14:03:04.047Z,27.48
2022-08-03T14:05:32.891Z,27.60
2022-08-03T14:08:05.791Z,27.67
2022-08-03T14:10:34.635Z,27.57
2022-08-03T14:13:01.794Z,27.55
2022-08-03T14:15:29.140Z,27.60
2022-08-03T14:18:16.133Z,27.65
2022-08-03T14:20:56.458Z,27.70
2022-08-03T14:23:24.458Z,27.62
2022-08-03T14:25:52.923Z,27.71
2022-08-03T14:28:25.005Z,27.79
2022-08-03T14:30:52.907Z,27.75
2022-08-03T14:33:20.672Z,27.64
2022-08-03T14:35:49.321Z,27.83
2022-08-03T14:38:16.868Z,27.89
2022-08-03T14:40:44.238Z,27.88
2022-08-03T14:43:11.534Z,27.78
2022-08-03T14:45:39.715Z,27.72
2022-08-03T14:50:28.751Z,27.83
2022-08-03T14:50:55.449Z,27.79
2022-08-03T14:53:22.984Z,27.69
2022-08-03T14:55:51.923Z,27.77
2022-08-03T14:58:22.756Z,27.74
2022-08-03T15:00:51.948Z,27.52
2022-08-03T15:03:24.771Z,27.69
2022-08-03T15:05:53.794Z,27.73
2022-08-03T15:08:22.316Z,27.63
2022-08-03T15:10:50.580Z,27.80
2022-08-03T15:13:19.607Z,27.86
2022-08-03T15:15:47.888Z,27.64
2022-08-03T15:18:15.295Z,27.59
2022-08-03T15:20:45.357Z,27.65
2022-08-03T15:23:14.991Z,27.59
2022-08-03T15:26:29.034Z,27.48
2022-08-03T15:28:30.861Z,27.54
2022-08-03T15:30:57.997Z,27.64
2022-08-03T15:33:25.257Z,27.61
2022-08-03T15:36:11.127Z,27.62
2022-08-03T15:38:38.230Z,27.62
2022-08-03T15:41:05.400Z,27.61
2022-08-03T15:43:38.362Z,27.51
2022-08-03T15:46:28.734Z,27.45
2022-08-03T15:48:53.722Z,27.24
2022-08-03T15:51:20.849Z,27.36
2022-08-03T15:53:47.910Z,27.33
2022-08-03T15:56:18.558Z,27.39
2022-08-03T15:59:10.362Z,27.37
2022-08-03T16:01:33.574Z,27.46
2022-08-03T16:04:00.658Z,27.94
2022-08-03T16:06:29.637Z,27.98
2022-08-03T16:09:23.074Z,27.71
2022-08-03T16:11:55.036Z,27.32
2022-08-03T16:14:34.854Z,27.24
2022-08-03T16:17:07.545Z,26.95
2022-08-03T16:19:35.519Z,27.00
2022-08-03T16:22:03.242Z,26.86
2022-08-03T16:24:30.823Z,26.87
2022-08-03T16:27:00.475Z,26.96
2022-08-03T16:29:28.592Z,26.87
2022-08-03T16:31:55.648Z,26.87
2022-08-03T16:34:22.835Z,26.84
2022-08-03T16:36:49.997Z,26.79
2022-08-03T16:39:17.152Z,26.66
2022-08-03T16:41:54.475Z,26.52
2022-08-03T16:44:29.755Z,26.52
2022-08-03T16:46:57.344Z,26.32
2022-08-03T16:49:55.251Z,26.28
2022-08-03T16:52:12.985Z,26.36
2022-08-03T16:54:40.827Z,26.27
2022-08-03T16:57:08.597Z,26.30
2022-08-03T16:59:37.038Z,26.31
2022-08-03T17:02:10.252Z,26.35
2022-08-03T17:04:40.932Z,26.37
2022-08-03T17:07:16.960Z,26.41
2022-08-03T17:09:45.097Z,26.40
2022-08-03T17:12:13.533Z,26.25
2022-08-03T17:14:41.543Z,26.36
2022-08-03T17:17:26.028Z,26.42
2022-08-03T17:19:55.173Z,26.38
2022-08-03T17:22:27.900Z,26.34
2022-08-03T17:24:57.812Z,26.28
2022-08-03T17:28:48.572Z,26.28
2022-08-03T17:30:18.811Z,26.30
2022-08-03T17:32:57.045Z,26.13
2022-08-03T17:35:35.522Z,26.06
2022-08-03T17:38:06.746Z,26.13
2022-08-03T17:40:38.075Z,26.13
2022-08-03T17:44:08.196Z,26.09
2022-08-03T17:45:54.812Z,26.07
2022-08-03T17:48:24.930Z,26.01
2022-08-03T17:51:15.420Z,25.95
2022-08-03T17:54:18.552Z,25.86
2022-08-03T17:56:51.868Z,25.83
2022-08-03T17:59:51.359Z,25.87
2022-08-03T18:03:18.182Z,25.78
2022-08-03T18:06:10.347Z,25.82
2022-08-03T18:08:50.528Z,25.70
2022-08-03T18:11:21.809Z,25.74
2022-08-03T18:14:23.861Z,25.70
2022-08-03T18:17:01.829Z,25.74
2022-08-03T18:20:03.558Z,25.60
2022-08-03T18:22:20.567Z,25.71
2022-08-03T18:24:51.255Z,25.56
2022-08-03T18:27:21.856Z,25.33
2022-08-03T18:29:50.032Z,25.57
2022-08-03T18:32:18.914Z,25.38
2022-08-03T18:34:53.508Z,25.43
2022-08-03T18:37:25.271Z,25.41
2022-08-03T18:42:52.847Z,25.21
2022-08-03T18:45:57.767Z,25.28
2022-08-03T18:48:16.031Z,25.21
2022-08-03T18:50:52.465Z,25.17
2022-08-03T18:56:51.794Z,25.11
2022-08-03T18:59:39.592Z,25.11
2022-08-03T19:02:17.288Z,25.02
2022-08-03T19:04:48.310Z,25.05
2022-08-03T19:07:23.291Z,24.98
2022-08-03T19:09:54.475Z,25.01
2022-08-03T19:12:39.418Z,24.86
2022-08-03T19:15:12.639Z,24.93
2022-08-03T19:17:53.680Z,24.78
2022-08-03T19:20:23.145Z,24.73
2022-08-03T19:22:54.430Z,24.60
2022-08-03T19:25:34.821Z,24.64
2022-08-03T19:28:07.319Z,24.64
2022-08-03T19:30:38.972Z,24.62
2022-08-03T19:33:12.061Z,24.42
2022-08-03T19:35:55.696Z,24.48
2022-08-03T19:38:28.387Z,24.43
2022-08-03T19:41:00.971Z,24.43
2022-08-03T19:43:49.393Z,24.46
2022-08-03T19:46:30.495Z,24.37
2022-08-03T19:48:58.672Z,24.30
2022-08-03T19:52:00.513Z,24.30
2022-08-03T19:54:29.524Z,24.25
2022-08-03T19:57:06.720Z,24.29
2022-08-03T19:59:49.631Z,24.14
2022-08-03T20:02:26.873Z,24.28
2022-08-03T20:07:48.281Z,24.27
2022-08-03T20:10:17.476Z,24.10
2022-08-03T20:12:46.459Z,24.18
2022-08-03T20:15:13.937Z,24.12
2022-08-03T20:17:55.944Z,24.06
2022-08-03T20:20:33.854Z,24.00
2022-08-03T20:23:10.353Z,23.90
2022-08-03T20:25:57.235Z,23.80
2022-08-03T20:28:35.168Z,23.89
2022-08-03T20:31:18.991Z,23.83
2022-08-03T20:33:49.024Z,23.68
2022-08-03T20:36:18.557Z,23.84
2022-08-03T20:38:50.165Z,23.71
2022-08-03T20:41:19.620Z,23.51
2022-08-03T20:43:49.213Z,23.62
2022-08-03T20:46:38.238Z,23.61
2022-08-03T20:49:06.795Z,23.56
2022-08-03T20:51:49.762Z,23.54
2022-08-03T20:54:28.715Z,23.48
2022-08-03T20:56:59.518Z,23.53
2022-08-03T20:59:36.916Z,23.51
2022-08-03T21:02:19.695Z,23.49
2022-08-03T21:04:56.445Z,23.39
2022-08-03T21:07:24.431Z,23.43
2022-08-03T21:10:15.370Z,23.44
2022-08-03T21:12:58.868Z,25.30
2022-08-03T21:13:00.957Z,25.18
2022-08-03T21:13:09.983Z,24.24
2022-08-03T21:13:12.580Z,23.34
2022-08-03T21:16:12.604Z,23.27
2022-08-03T21:18:36.464Z,23.27
2022-08-03T21:21:05.431Z,23.27
2022-08-03T21:23:47.711Z,23.13
2022-08-03T21:26:21.394Z,23.26
2022-08-03T21:28:50.077Z,23.19
2022-08-03T21:31:24.490Z,23.17
2022-08-03T21:34:03.543Z,23.02
2022-08-03T21:36:33.734Z,23.04
2022-08-03T21:39:02.031Z,23.03
2022-08-03T21:41:32.449Z,22.94
2022-08-03T21:44:00.214Z,22.93
2022-08-03T21:46:33.862Z,22.79
2022-08-03T21:50:04.709Z,22.60
2022-08-03T21:51:54.123Z,22.66
2022-08-03T21:54:24.413Z,22.70
2022-08-03T21:56:51.429Z,22.85
2022-08-03T21:59:20.630Z,22.73
2022-08-03T22:01:55.245Z,22.73
2022-08-03T22:04:55.494Z,22.66
2022-08-03T22:07:14.280Z,22.76
2022-08-03T22:09:51.400Z,22.69
2022-08-03T22:12:24.105Z,22.67
2022-08-03T22:15:01.242Z,22.60
2022-08-03T22:17:55.917Z,22.60
2022-08-03T22:20:24.453Z,22.53
2022-08-03T22:22:57.016Z,22.46
2022-08-03T22:25:30.765Z,22.39
2022-08-03T22:28:00.894Z,22.36
2022-08-03T22:30:28.339Z,22.23
2022-08-03T22:32:57.632Z,22.22
2022-08-03T22:35:27.715Z,22.25
2022-08-03T22:37:58.562Z,22.28
2022-08-03T22:40:27.849Z,22.24
2022-08-03T22:42:55.298Z,22.24
2022-08-03T22:46:06.877Z,22.22
2022-08-03T22:48:11.104Z,22.17
2022-08-03T22:50:39.278Z,22.14
2022-08-03T22:53:06.978Z,22.15
2022-08-03T22:55:34.451Z,22.09
2022-08-03T22:58:01.641Z,22.06
2022-08-03T23:00:28.737Z,22.02
2022-08-03T23:03:00.316Z,21.96
2022-08-03T23:06:02.413Z,21.91
2022-08-03T23:08:24.202Z,21.78
2022-08-03T23:10:53.354Z,21.77
2022-08-03T23:13:25.677Z,21.76
2022-08-03T23:15:59.182Z,21.62
2022-08-03T23:18:34.113Z,21.73
2022-08-03T23:21:11.322Z,21.72
2022-08-03T23:23:44.415Z,21.63
2022-08-03T23:26:13.920Z,21.62
2022-08-03T23:28:45.322Z,21.62
2022-08-03T23:31:13.918Z,21.68
2022-08-03T23:33:44.532Z,21.66
2022-08-03T23:36:30.219Z,21.53
2022-08-03T23:39:02.298Z,21.59
2022-08-03T23:41:30.876Z,21.54
2022-08-03T23:44:00.955Z,21.50
2022-08-03T23:46:30.481Z,21.49
2022-08-03T23:49:00.716Z,21.47
2022-08-03T23:52:08.978Z,21.44
2022-08-03T23:54:54.803Z,21.46
2022-08-03T23:57:46.896Z,21.42
